createdAt,value
2019-02-27T00:01:21.397Z,23.83
2019-02-27T00:03:51.110Z,19.57
2019-02-27T00:06:21.508Z,22.63
2019-02-27T00:08:51.394Z,21.87
2019-02-27T00:11:21.056Z,23.50
2019-02-27T00:13:50.651Z,22.77
2019-02-27T00:16:20.188Z,23.87
2019-02-27T00:18:50.376Z,24.63
2019-02-27T00:21:20.229Z,23.67
2019-02-27T00:23:50.269Z,23.67
2019-02-27T00:26:19.988Z,23.50
2019-02-27T00:28:51.167Z,22.50
2019-02-27T00:31:21.254Z,23.13
2019-02-27T00:33:51.597Z,21.13
2019-02-27T00:36:21.496Z,22.93
2019-02-27T00:38:51.214Z,23.87
2019-02-27T00:41:22.753Z,22.10
2019-02-27T00:43:52.624Z,24.57
2019-02-27T00:46:22.891Z,25.20
2019-02-27T00:48:52.615Z,25.77
2019-02-27T00:51:21.951Z,24.80
2019-02-27T00:53:51.431Z,28.47
2019-02-27T00:56:21.478Z,25.83
2019-02-27T00:58:51.553Z,25.13
2019-02-27T01:01:21.677Z,24.40
2019-02-27T01:03:51.754Z,23.77
2019-02-27T01:06:21.550Z,25.17
2019-02-27T01:08:51.677Z,24.77
2019-02-27T01:11:21.410Z,24.93
2019-02-27T01:13:51.285Z,25.33
2019-02-27T01:16:21.452Z,24.87
2019-02-27T01:18:51.237Z,25.97
2019-02-27T01:21:21.241Z,25.97
2019-02-27T01:23:51.550Z,26.37
2019-02-27T01:26:21.336Z,26.17
2019-02-27T01:28:51.274Z,27.63
2019-02-27T01:31:21.953Z,25.03
2019-02-27T01:33:52.387Z,24.73
2019-02-27T01:36:24.497Z,26.37
2019-02-27T01:38:53.787Z,25.97
2019-02-27T01:41:24.572Z,25.73
2019-02-27T01:43:54.932Z,26.13
2019-02-27T01:46:28.446Z,26.50
2019-02-27T01:49:01.142Z,25.83
2019-02-27T01:51:30.764Z,25.67
2019-02-27T01:54:01.343Z,23.93
2019-02-27T01:56:33.499Z,26.13
2019-02-27T01:59:04.174Z,25.50
2019-02-27T02:01:34.258Z,24.67
2019-02-27T02:04:03.731Z,25.23
2019-02-27T02:06:33.253Z,24.63
2019-02-27T02:09:10.930Z,23.40
2019-02-27T02:11:42.618Z,25.77
2019-02-27T02:14:43.959Z,25.23
2019-02-27T02:17:32.839Z,24.30
2019-02-27T02:20:20.686Z,25.27
2019-02-27T02:23:19.235Z,25.30
2019-02-27T02:25:53.217Z,24.13
2019-02-27T02:28:27.293Z,24.37
2019-02-27T02:31:16.451Z,25.20
2019-02-27T02:34:05.605Z,25.13
2019-02-27T02:36:53.132Z,25.53
2019-02-27T02:39:32.105Z,24.33
2019-02-27T02:42:24.355Z,26.43
2019-02-27T02:45:13.550Z,25.07
2019-02-27T02:48:05.123Z,24.33
2019-02-27T02:50:40.447Z,25.43
2019-02-27T02:53:29.150Z,24.53
2019-02-27T02:56:11.179Z,23.50
2019-02-27T02:58:48.496Z,22.87
2019-02-27T03:01:28.044Z,24.57
2019-02-27T03:04:06.055Z,23.40
2019-02-27T03:06:43.783Z,24.87
2019-02-27T03:09:17.938Z,22.23
2019-02-27T03:12:31.090Z,23.50
2019-02-27T03:15:15.622Z,22.80
2019-02-27T03:18:13.407Z,20.83
2019-02-27T03:21:11.397Z,22.93
2019-02-27T03:24:12.020Z,22.43
2019-02-27T03:27:03.964Z,20.27
2019-02-27T03:30:02.931Z,16.60
2019-02-27T03:32:45.770Z,20.50
2019-02-27T03:35:42.241Z,21.67
2019-02-27T03:38:24.236Z,21.33
2019-02-27T03:41:12.477Z,21.33
2019-02-27T03:44:10.251Z,21.37
2019-02-27T03:46:47.435Z,20.53
2019-02-27T03:49:39.763Z,21.10
2019-02-27T03:52:16.477Z,22.40
2019-02-27T03:55:23.165Z,21.23
2019-02-27T03:58:01.875Z,21.57
2019-02-27T04:00:36.477Z,21.90
2019-02-27T04:03:19.204Z,21.77
2019-02-27T04:06:19.992Z,21.20
2019-02-27T04:09:00.715Z,19.97
2019-02-27T04:11:30.732Z,23.33
2019-02-27T04:14:04.800Z,21.73
2019-02-27T04:16:34.762Z,24.77
2019-02-27T04:19:05.177Z,25.83
2019-02-27T04:21:35.330Z,25.07
2019-02-27T04:24:10.035Z,26.03
2019-02-27T04:26:41.984Z,24.47
2019-02-27T04:29:12.652Z,24.90
2019-02-27T04:31:44.117Z,25.53
2019-02-27T04:34:14.193Z,23.50
2019-02-27T04:36:46.896Z,23.37
2019-02-27T04:39:15.532Z,22.30
2019-02-27T04:41:45.745Z,22.27
2019-02-27T04:44:15.937Z,21.80
2019-02-27T04:46:47.595Z,21.43
2019-02-27T04:49:18.236Z,21.57
2019-02-27T04:51:50.597Z,21.33
2019-02-27T04:54:19.867Z,21.70
2019-02-27T04:56:51.394Z,20.13
2019-02-27T04:59:21.771Z,21.83
2019-02-27T05:01:51.934Z,20.30
2019-02-27T05:04:21.395Z,21.87
2019-02-27T05:06:52.484Z,23.77
2019-02-27T05:09:22.571Z,23.40
2019-02-27T05:11:52.936Z,22.67
2019-02-27T05:14:24.910Z,22.57
2019-02-27T05:16:59.618Z,23.40
2019-02-27T05:19:31.637Z,21.43
2019-02-27T05:22:03.429Z,20.97
2019-02-27T05:24:41.557Z,20.93
2019-02-27T05:27:14.195Z,23.00
2019-02-27T05:29:44.772Z,20.27
2019-02-27T05:32:18.204Z,19.73
2019-02-27T05:34:49.799Z,20.70
2019-02-27T05:37:21.262Z,20.27
2019-02-27T05:39:51.816Z,21.63
2019-02-27T05:42:26.866Z,20.83
2019-02-27T05:44:58.170Z,21.53
2019-02-27T05:47:30.343Z,21.60
2019-02-27T05:50:04.366Z,23.20
2019-02-27T05:52:35.137Z,23.30
2019-02-27T05:55:06.438Z,23.53
2019-02-27T05:57:38.909Z,22.33
2019-02-27T06:00:11.161Z,21.47
2019-02-27T06:02:44.862Z,22.03
2019-02-27T06:05:13.593Z,22.57
2019-02-27T06:07:43.122Z,22.20
2019-02-27T06:10:14.193Z,23.80
2019-02-27T06:12:46.290Z,21.73
2019-02-27T06:15:18.675Z,22.13
2019-02-27T06:17:49.102Z,22.63
2019-02-27T06:20:19.448Z,22.40
2019-02-27T06:22:48.831Z,22.63
2019-02-27T06:25:22.299Z,24.43
2019-02-27T06:27:49.630Z,29.93
2019-02-27T06:30:20.308Z,30.90
2019-02-27T06:32:49.475Z,37.70
2019-02-27T06:35:19.417Z,44.27
2019-02-27T06:37:50.742Z,47.90
2019-02-27T06:40:20.537Z,48.43
2019-02-27T06:42:53.381Z,42.20
2019-02-27T06:45:21.253Z,37.83
2019-02-27T06:47:50.522Z,36.73
2019-02-27T06:50:19.847Z,32.50
2019-02-27T06:52:49.043Z,29.03
2019-02-27T06:55:18.218Z,26.23
2019-02-27T06:57:47.584Z,27.93
2019-02-27T07:00:18.079Z,28.27
2019-02-27T07:02:47.229Z,28.30
2019-02-27T07:05:16.841Z,25.50
2019-02-27T07:07:46.329Z,24.43
2019-02-27T07:10:19.434Z,31.57
2019-02-27T07:12:48.193Z,36.60
2019-02-27T07:15:18.162Z,37.33
2019-02-27T07:17:47.948Z,28.93
2019-02-27T07:20:24.088Z,28.83
2019-02-27T07:22:50.535Z,25.80
2019-02-27T07:25:20.539Z,26.60
2019-02-27T07:27:49.775Z,26.77
2019-02-27T07:30:19.944Z,26.07
2019-02-27T07:32:49.161Z,25.97
2019-02-27T07:35:19.005Z,26.50
2019-02-27T07:37:48.949Z,24.87
2019-02-27T07:40:18.550Z,25.03
2019-02-27T07:42:48.704Z,24.13
2019-02-27T07:45:18.715Z,25.23
2019-02-27T07:47:48.602Z,22.83
2019-02-27T07:50:18.476Z,25.20
2019-02-27T07:52:52.075Z,25.07
2019-02-27T07:55:24.374Z,25.77
2019-02-27T07:57:58.425Z,23.67
2019-02-27T08:00:26.592Z,25.17
2019-02-27T08:02:57.760Z,23.70
2019-02-27T08:05:29.109Z,24.60
2019-02-27T08:07:59.796Z,24.27
2019-02-27T08:10:30.074Z,24.40
2019-02-27T08:13:00.526Z,24.83
2019-02-27T08:15:30.896Z,24.03
2019-02-27T08:18:01.175Z,24.17
2019-02-27T08:20:31.416Z,23.67
2019-02-27T08:23:03.411Z,24.27
2019-02-27T08:25:37.184Z,22.13
2019-02-27T08:28:07.804Z,22.47
2019-02-27T08:30:40.948Z,22.53
2019-02-27T08:33:10.998Z,22.90
2019-02-27T08:35:41.800Z,22.03
2019-02-27T08:38:12.331Z,22.17
2019-02-27T08:40:42.700Z,23.47
2019-02-27T08:43:16.776Z,21.80
2019-02-27T08:45:46.988Z,21.20
2019-02-27T08:48:17.552Z,22.00
2019-02-27T08:50:47.926Z,20.23
2019-02-27T08:53:17.842Z,20.43
2019-02-27T08:55:48.057Z,20.53
2019-02-27T08:58:18.400Z,20.50
2019-02-27T09:00:48.602Z,20.70
2019-02-27T09:03:20.663Z,20.93
2019-02-27T09:05:50.957Z,19.40
2019-02-27T09:08:23.281Z,18.97
2019-02-27T09:10:54.597Z,19.17
2019-02-27T09:13:25.167Z,19.03
2019-02-27T09:15:54.718Z,20.27
2019-02-27T09:18:24.300Z,21.37
2019-02-27T09:20:55.754Z,22.63
2019-02-27T09:23:26.298Z,23.23
2019-02-27T09:25:57.408Z,24.87
2019-02-27T09:28:27.468Z,25.03
2019-02-27T09:31:03.190Z,25.47
2019-02-27T09:33:38.786Z,27.10
2019-02-27T09:36:04.392Z,28.00
2019-02-27T09:38:35.174Z,29.30
2019-02-27T09:41:04.967Z,27.03
2019-02-27T09:43:35.947Z,27.10
2019-02-27T09:46:24.353Z,26.23
2019-02-27T09:48:55.757Z,24.50
2019-02-27T09:51:24.649Z,25.73
2019-02-27T09:53:54.366Z,24.47
2019-02-27T09:56:26.047Z,23.43
2019-02-27T09:58:59.464Z,23.17
2019-02-27T10:01:34.158Z,23.93
2019-02-27T10:04:01.389Z,24.43
2019-02-27T10:06:31.621Z,22.80
2019-02-27T10:09:01.919Z,23.00
2019-02-27T10:11:31.588Z,22.93
2019-02-27T10:14:02.188Z,23.67
2019-02-27T10:16:34.864Z,24.87
2019-02-27T10:19:05.285Z,24.13
2019-02-27T10:21:36.191Z,22.90
2019-02-27T10:24:06.093Z,22.63
2019-02-27T10:26:36.277Z,23.13
2019-02-27T10:29:05.899Z,23.27
2019-02-27T10:31:35.946Z,21.40
2019-02-27T10:34:06.066Z,19.03
2019-02-27T10:36:39.233Z,19.53
2019-02-27T10:39:08.247Z,19.73
2019-02-27T10:41:39.703Z,18.57
2019-02-27T10:44:09.931Z,18.93
2019-02-27T10:46:41.076Z,18.23
2019-02-27T10:49:10.663Z,18.47
2019-02-27T10:51:47.136Z,19.97
2019-02-27T10:54:17.042Z,19.57
2019-02-27T10:57:14.335Z,19.83
2019-02-27T11:00:05.458Z,14.60
2019-02-27T11:02:35.930Z,11.10
2019-02-27T11:05:06.722Z,11.67
2019-02-27T11:07:36.382Z,10.70
2019-02-27T11:10:06.857Z,10.80
2019-02-27T11:12:36.762Z,10.07
2019-02-27T11:15:08.163Z,8.87
2019-02-27T11:17:39.450Z,9.57
2019-02-27T11:20:10.091Z,9.40
2019-02-27T11:22:40.014Z,10.10
2019-02-27T11:25:13.856Z,6.83
2019-02-27T11:27:44.970Z,6.73
2019-02-27T11:30:19.258Z,7.33
2019-02-27T11:32:49.375Z,6.20
2019-02-27T11:35:22.009Z,6.60
2019-02-27T11:37:53.193Z,7.70
2019-02-27T11:40:25.352Z,7.00
2019-02-27T11:42:55.996Z,6.93
2019-02-27T11:45:28.111Z,5.80
2019-02-27T11:47:58.637Z,6.90
2019-02-27T11:50:29.499Z,7.70
2019-02-27T11:53:02.756Z,7.07
2019-02-27T11:55:31.537Z,8.23
2019-02-27T11:58:05.372Z,8.70
2019-02-27T12:00:35.571Z,8.27
2019-02-27T12:03:30.143Z,8.67
2019-02-27T12:06:01.930Z,8.70
2019-02-27T12:12:06.353Z,9.97
2019-02-27T12:14:36.569Z,9.70
2019-02-27T12:17:06.867Z,10.83
2019-02-27T12:19:42.090Z,10.50
2019-02-27T12:22:09.570Z,8.33
2019-02-27T12:24:40.928Z,8.30
2019-02-27T12:27:24.238Z,8.87
2019-02-27T12:29:44.171Z,7.27
2019-02-27T12:32:13.516Z,7.50
2019-02-27T12:34:43.098Z,7.20
2019-02-27T12:37:19.265Z,8.83
2019-02-27T12:39:44.243Z,10.47
2019-02-27T12:42:13.501Z,12.77
2019-02-27T12:44:42.895Z,10.07
2019-02-27T12:47:13.550Z,11.30
2019-02-27T12:49:45.838Z,12.90
2019-02-27T12:52:18.078Z,14.30
2019-02-27T12:54:48.754Z,12.70
2019-02-27T12:57:22.028Z,15.93
2019-02-27T12:59:52.955Z,14.90
2019-02-27T13:02:34.666Z,15.40
2019-02-27T13:04:57.844Z,15.60
2019-02-27T13:07:27.786Z,16.13
2019-02-27T13:09:58.814Z,16.93
2019-02-27T13:12:31.125Z,14.90
2019-02-27T13:15:06.661Z,17.57
2019-02-27T13:17:33.423Z,17.23
2019-02-27T13:20:03.165Z,16.17
2019-02-27T13:22:33.761Z,14.30
2019-02-27T13:25:11.786Z,14.13
2019-02-27T13:27:43.266Z,15.87
2019-02-27T13:30:14.353Z,13.10
2019-02-27T13:32:44.614Z,15.07
2019-02-27T13:35:16.161Z,13.93
2019-02-27T13:37:45.435Z,14.93
2019-02-27T13:40:16.500Z,13.07
2019-02-27T13:42:47.219Z,12.10
2019-02-27T13:45:17.786Z,11.03
2019-02-27T13:47:47.119Z,12.97
2019-02-27T13:50:19.732Z,14.03
2019-02-27T13:52:50.545Z,13.17
2019-02-27T13:55:20.018Z,12.30
2019-02-27T13:57:59.766Z,13.37
2019-02-27T14:00:31.629Z,12.47
2019-02-27T14:03:12.164Z,13.23
2019-02-27T14:05:51.446Z,12.90
2019-02-27T14:08:21.917Z,14.10
2019-02-27T14:10:53.390Z,13.40
2019-02-27T14:13:24.071Z,13.47
2019-02-27T14:15:58.098Z,13.57
2019-02-27T14:18:28.294Z,13.90
2019-02-27T14:21:01.711Z,13.70
2019-02-27T14:23:33.627Z,14.83
2019-02-27T14:26:06.730Z,13.97
2019-02-27T14:28:37.103Z,14.73
2019-02-27T14:31:10.468Z,14.80
2019-02-27T14:33:46.425Z,14.07
2019-02-27T14:36:19.201Z,14.37
2019-02-27T14:38:53.375Z,14.33
2019-02-27T14:41:33.448Z,14.77
2019-02-27T14:44:03.873Z,15.23
2019-02-27T14:46:34.369Z,15.63
2019-02-27T14:49:07.867Z,14.80
2019-02-27T14:51:37.104Z,14.23
2019-02-27T14:54:06.438Z,13.30
2019-02-27T14:56:41.673Z,13.97
2019-02-27T14:59:10.091Z,13.17
2019-02-27T15:01:39.970Z,12.80
2019-02-27T15:04:10.530Z,12.77
2019-02-27T15:06:40.060Z,13.20
2019-02-27T15:09:10.175Z,13.40
2019-02-27T15:11:44.913Z,14.20
2019-02-27T15:14:16.366Z,14.50
2019-02-27T15:16:49.299Z,16.10
2019-02-27T15:19:19.471Z,15.43
2019-02-27T15:21:49.488Z,15.40
2019-02-27T15:24:20.879Z,16.23
2019-02-27T15:26:51.526Z,14.63
2019-02-27T15:29:21.458Z,16.60
2019-02-27T15:31:52.183Z,20.43
2019-02-27T15:34:42.741Z,17.57
2019-02-27T15:37:26.714Z,18.40
2019-02-27T15:39:57.839Z,20.53
2019-02-27T15:45:28.569Z,24.87
2019-02-27T15:47:59.405Z,23.57
2019-02-27T15:50:40.948Z,26.03
2019-02-27T15:53:14.562Z,31.27
2019-02-27T15:56:08.027Z,33.27
2019-02-27T16:13:01.055Z,38.77
2019-02-27T16:15:35.877Z,41.27
2019-02-27T16:18:25.017Z,44.23
2019-02-27T16:20:55.467Z,44.70
2019-02-27T16:27:25.200Z,51.00
2019-02-27T16:30:01.246Z,50.63
2019-02-27T16:42:56.255Z,35.87
2019-02-27T16:45:33.544Z,35.00
2019-02-27T16:48:03.323Z,35.00
2019-02-27T16:50:34.041Z,35.90
2019-02-27T16:53:33.353Z,31.20
2019-02-27T16:56:03.988Z,30.30
2019-02-27T16:58:36.184Z,29.67
2019-02-27T17:01:08.173Z,30.27
2019-02-27T17:03:38.257Z,34.37
2019-02-27T17:06:14.154Z,36.80
2019-02-27T17:08:43.907Z,35.27
2019-02-27T17:11:18.766Z,37.70
2019-02-27T17:13:55.373Z,37.93
2019-02-27T17:16:26.458Z,35.90
2019-02-27T17:18:56.229Z,34.73
2019-02-27T17:21:27.896Z,36.87
2019-02-27T17:23:59.040Z,38.83
2019-02-27T17:26:30.742Z,38.73
2019-02-27T17:29:04.153Z,39.33
2019-02-27T17:31:36.723Z,37.73
2019-02-27T17:34:11.034Z,36.57
2019-02-27T17:36:40.706Z,36.13
2019-02-27T17:39:10.619Z,35.07
2019-02-27T17:41:41.945Z,36.70
2019-02-27T17:44:11.245Z,38.23
2019-02-27T17:46:43.372Z,41.00
2019-02-27T17:49:15.785Z,42.50
2019-02-27T17:51:46.098Z,41.23
2019-02-27T17:54:17.345Z,39.00
2019-02-27T17:56:49.982Z,35.10
2019-02-27T17:59:20.675Z,35.90
2019-02-27T18:01:51.949Z,37.77
2019-02-27T18:04:24.196Z,34.73
2019-02-27T18:06:58.058Z,36.30
2019-02-27T18:09:27.264Z,34.93
2019-02-27T18:11:57.509Z,34.43
2019-02-27T18:14:31.051Z,33.73
2019-02-27T18:17:01.371Z,33.03
2019-02-27T18:19:38.990Z,32.97
2019-02-27T18:22:14.654Z,31.80
2019-02-27T18:24:49.555Z,32.60
2019-02-27T18:27:27.399Z,33.03
2019-02-27T18:36:43.127Z,34.03
2019-02-27T18:39:13.597Z,35.90
2019-02-27T18:41:45.683Z,36.27
2019-02-27T18:44:16.310Z,38.53
2019-02-27T18:46:48.895Z,39.40
2019-02-27T18:49:19.293Z,38.27
2019-02-27T18:52:00.868Z,34.93
2019-02-27T18:54:30.682Z,30.97
2019-02-27T18:57:00.269Z,32.47
2019-02-27T18:59:30.736Z,32.47
2019-02-27T19:02:01.199Z,32.37
2019-02-27T19:04:35.227Z,33.40
2019-02-27T19:07:10.729Z,33.50
2019-02-27T19:09:43.617Z,34.07
2019-02-27T19:12:18.319Z,34.77
2019-02-27T19:14:54.197Z,36.20
2019-02-27T19:17:29.433Z,36.83
2019-02-27T19:19:58.112Z,38.30
2019-02-27T19:22:29.442Z,37.57
2019-02-27T19:25:03.948Z,38.67
2019-02-27T19:27:35.332Z,38.90
2019-02-27T19:30:07.298Z,38.93
2019-02-27T19:32:41.147Z,41.10
2019-02-27T19:35:11.354Z,42.57
2019-02-27T19:37:42.143Z,41.40
2019-02-27T19:40:19.588Z,39.70
2019-02-27T19:42:51.236Z,36.47
2019-02-27T19:45:21.843Z,33.47
2019-02-27T19:47:54.631Z,32.23
2019-02-27T19:50:27.404Z,28.60
2019-02-27T19:52:57.148Z,29.47
2019-02-27T19:55:27.503Z,27.53
2019-02-27T19:57:59.962Z,30.13
2019-02-27T20:00:35.214Z,30.17
2019-02-27T20:03:05.450Z,31.07
2019-02-27T20:05:36.376Z,33.43
2019-02-27T20:08:12.128Z,33.73
2019-02-27T20:10:44.163Z,32.77
2019-02-27T20:13:17.175Z,33.43
2019-02-27T20:15:51.117Z,33.50
2019-02-27T20:18:23.738Z,31.10
2019-02-27T20:20:53.921Z,27.70
2019-02-27T20:23:25.734Z,28.27
2019-02-27T20:25:59.246Z,27.23
2019-02-27T20:28:31.785Z,27.20
2019-02-27T20:31:04.122Z,26.97
2019-02-27T20:33:37.178Z,23.90
2019-02-27T20:36:06.584Z,28.43
2019-02-27T20:38:51.696Z,28.97
2019-02-27T20:41:22.618Z,30.87
2019-02-27T20:43:52.943Z,33.13
2019-02-27T20:46:24.677Z,29.83
2019-02-27T20:49:04.710Z,28.07
2019-02-27T20:51:39.798Z,22.53
2019-02-27T20:54:09.557Z,30.60
2019-02-27T20:56:38.835Z,28.80
2019-02-27T20:59:09.328Z,30.43
2019-02-27T21:01:38.741Z,29.50
2019-02-27T21:04:08.590Z,27.20
2019-02-27T21:06:41.141Z,29.10
2019-02-27T21:09:14.153Z,26.03
2019-02-27T21:11:48.854Z,24.77
2019-02-27T21:14:20.512Z,23.77
2019-02-27T21:16:49.967Z,22.03
2019-02-27T21:19:21.159Z,23.00
2019-02-27T21:21:54.441Z,26.93
2019-02-27T21:24:26.291Z,25.07
2019-02-27T21:27:02.691Z,19.50
2019-02-27T21:29:34.178Z,24.20
2019-02-27T21:32:05.767Z,24.93
2019-02-27T21:34:35.530Z,22.27
2019-02-27T21:37:07.130Z,24.40
2019-02-27T21:39:39.803Z,25.13
2019-02-27T21:42:12.328Z,21.17
2019-02-27T21:44:43.663Z,26.40
2019-02-27T21:47:13.991Z,25.13
2019-02-27T21:49:43.876Z,26.43
2019-02-27T21:52:13.779Z,24.40
2019-02-27T21:54:45.842Z,23.77
2019-02-27T21:57:18.591Z,22.47
2019-02-27T21:59:49.662Z,25.30
2019-02-27T22:02:18.989Z,20.07
2019-02-27T22:04:50.530Z,24.40
2019-02-27T22:07:21.605Z,24.60
2019-02-27T22:09:54.225Z,26.20
2019-02-27T22:12:24.271Z,25.97
2019-02-27T22:14:56.007Z,26.07
2019-02-27T22:17:26.677Z,24.20
2019-02-27T22:19:56.777Z,22.80
2019-02-27T22:22:27.836Z,23.60
2019-02-27T22:24:58.166Z,20.13
2019-02-27T22:27:28.668Z,21.17
2019-02-27T22:30:01.093Z,23.50
2019-02-27T22:32:32.069Z,22.97
2019-02-27T22:35:02.878Z,22.50
2019-02-27T22:37:33.784Z,23.57
2019-02-27T22:40:07.522Z,24.60
2019-02-27T22:42:39.910Z,23.17
2019-02-27T22:45:12.396Z,23.53
2019-02-27T22:47:42.482Z,23.83
2019-02-27T22:50:13.579Z,25.57
2019-02-27T22:52:43.813Z,22.80
2019-02-27T22:55:22.719Z,25.53
2019-02-27T22:58:19.554Z,25.53
2019-02-27T23:01:15.890Z,23.30
2019-02-27T23:03:49.494Z,24.73
2019-02-27T23:06:25.524Z,25.13
2019-02-27T23:08:58.734Z,25.80
2019-02-27T23:11:36.780Z,27.33
2019-02-27T23:14:07.684Z,24.57
2019-02-27T23:17:01.225Z,26.53
2019-02-27T23:19:32.664Z,24.60
2019-02-27T23:22:03.340Z,24.97
2019-02-27T23:24:37.564Z,23.23
2019-02-27T23:27:12.099Z,20.77
2019-02-27T23:29:53.310Z,20.60
2019-02-27T23:32:34.771Z,18.57
2019-02-27T23:35:06.921Z,18.13
2019-02-27T23:37:38.076Z,16.73
2019-02-27T23:40:09.887Z,16.47
2019-02-27T23:42:40.188Z,16.43
2019-02-27T23:45:13.351Z,13.77
2019-02-27T23:47:48.953Z,15.87
2019-02-27T23:50:19.074Z,14.13
2019-02-27T23:52:49.465Z,12.53
2019-02-27T23:55:21.531Z,13.13
2019-02-27T23:57:57.546Z,11.70
